Terminal Aerodrome Forecast
Issued by NWS Wilmington, OH

Home | Current Version | Previous Version | Text Only | Print | Product List | Glossary On
Versions: 1 2 3 4 5 6 7 8 9 10 11 12 13 14 15 16 17 18 19 20 21 22 23 24 25
000
FTUS41 KILN 290655 AAA
TAFDAY
TAF AMD
KDAY 290655Z 2907/3006 VRB03KT 2SM BR OVC004
     FM290800 VRB03KT 1SM BR OVC004
     FM291500 04006KT 5SM BR OVC012
     FM291700 04006KT P6SM VCSH OVC020
     FM291900 03006KT P6SM VCSH SCT025 BKN040=

USA.gov is the U.S. government's official web portal to all federal, state and local government web resources and services.